CSG819 UBBB-ZGGG
Flight info
| Callsign | CSG819 |
|---|---|
| Flight time | N/A |
| Altitude | 35000 |
| Route | NAMAS N35 RODAR A909 TUNEK B143 KRS B738 NEBIT B476 DARVA/K0893F350 T898 OGOLI N193 SR L163 TISIB L141 KAMUD/K0893S1070 W186 SADAN Y1 MEPEP/K0895S1130 Y1 OMBON W245 OVRAL B330 SJG G586 QP B330 GYA GYA7 |
| Aircraft | B77L/H-SDE1E2E3FGHIJ2J3J4J5M1RWXY/LB1D1 |
Departure
| Time | 2026-05-04 08:46 |
|---|---|
| Airport | Heydar Aliyev International Airport (UBBB) |
Arrival
| Time | N/A |
|---|---|
| Airport | Guangzhou Baiyun International Airport (ZGGG) |
| Time | Latitude | Longitude | Altitude | Speed | Heading |
|---|---|---|---|---|---|
| 2026-05-04 08:20 | 40.46055 | 50.05849 | 22 ft | 0 kts | 269° |
| 2026-05-04 08:35 | 40.46055 | 50.05887 | 22 ft | 2 kts | 269° |
| 2026-05-04 08:35 | 40.46056 | 50.05906 | 22 ft | 2 kts | 269° |
| 2026-05-04 08:35 | 40.46054 | 50.05926 | 22 ft | 2 kts | 291° |
| 2026-05-04 08:35 | 40.46047 | 50.05943 | 22 ft | 2 kts | 312° |
| 2026-05-04 08:37 | 40.46012 | 50.05963 | 22 ft | 0 kts | 0° |
| 2026-05-04 08:38 | 40.46018 | 50.05963 | 22 ft | 3 kts | 359° |
| 2026-05-04 08:38 | 40.46090 | 50.05961 | 22 ft | 15 kts | 359° |
| 2026-05-04 08:38 | 40.46207 | 50.05959 | 22 ft | 16 kts | 359° |
| 2026-05-04 08:40 | 40.47054 | 50.06085 | 22 ft | 33 kts | 359° |
| 2026-05-04 08:40 | 40.47280 | 50.06081 | 22 ft | 31 kts | 359° |
| 2026-05-04 08:40 | 40.47485 | 50.06079 | 22 ft | 28 kts | 360° |
| 2026-05-04 08:41 | 40.47677 | 50.06076 | 22 ft | 26 kts | 359° |
| 2026-05-04 08:41 | 40.47850 | 50.06073 | 22 ft | 23 kts | 359° |
| 2026-05-04 08:41 | 40.48009 | 50.06072 | 22 ft | 21 kts | 359° |
| 2026-05-04 08:41 | 40.48153 | 50.06070 | 22 ft | 19 kts | 360° |
| 2026-05-04 08:42 | 40.48282 | 50.06068 | 22 ft | 17 kts | 359° |
| 2026-05-04 08:42 | 40.48398 | 50.06066 | 22 ft | 15 kts | 359° |
| 2026-05-04 08:42 | 40.48495 | 50.06092 | 22 ft | 13 kts | 46° |
| 2026-05-04 08:42 | 40.48520 | 50.06201 | 22 ft | 11 kts | 85° |
| 2026-05-04 08:43 | 40.48493 | 50.06281 | 22 ft | 8 kts | 162° |
| 2026-05-04 08:43 | 40.48483 | 50.06282 | 22 ft | 0 kts | 179° |
| 2026-05-04 08:46 | 40.42645 | 50.06374 | 2015 ft | 199 kts | 181° |
| 2026-05-04 08:46 | 40.41198 | 50.06395 | 2404 ft | 218 kts | 181° |
| 2026-05-04 08:46 | 40.39627 | 50.06421 | 2891 ft | 235 kts | 181° |
| 2026-05-04 08:46 | 40.38051 | 50.06446 | 3538 ft | 243 kts | 181° |
| 2026-05-04 08:47 | 40.36872 | 50.06623 | 4112 ft | 248 kts | 167° |
| 2026-05-04 08:47 | 40.35298 | 50.07687 | 4841 ft | 261 kts | 144° |
| 2026-05-04 08:47 | 40.34002 | 50.09261 | 5595 ft | 266 kts | 141° |
| 2026-05-04 08:47 | 40.32663 | 50.10979 | 6285 ft | 272 kts | 141° |
| 2026-05-04 08:48 | 40.31307 | 50.12729 | 7006 ft | 276 kts | 141° |
| 2026-05-04 08:48 | 40.29982 | 50.14439 | 7698 ft | 280 kts | 140° |
| 2026-05-04 08:48 | 40.28859 | 50.16407 | 7926 ft | 292 kts | 118° |
| 2026-05-04 08:48 | 40.28401 | 50.18729 | 7960 ft | 302 kts | 98° |
| 2026-05-04 08:49 | 40.28340 | 50.20841 | 7966 ft | 304 kts | 94° |
| 2026-05-04 08:50 | 40.29153 | 50.36603 | 9467 ft | 312 kts | 83° |
| 2026-05-04 08:50 | 40.29518 | 50.39382 | 10143 ft | 316 kts | 83° |
| 2026-05-04 08:51 | 40.29889 | 50.42253 | 10523 ft | 331 kts | 83° |
| 2026-05-04 08:51 | 40.30286 | 50.45341 | 10861 ft | 349 kts | 83° |
| 2026-05-04 08:51 | 40.30697 | 50.48541 | 11238 ft | 365 kts | 83° |
| 2026-05-04 08:51 | 40.31126 | 50.51884 | 11658 ft | 380 kts | 82° |
| 2026-05-04 08:52 | 40.31567 | 50.55322 | 12065 ft | 395 kts | 82° |
| 2026-05-04 08:52 | 40.32031 | 50.58954 | 12496 ft | 410 kts | 82° |
| 2026-05-04 08:52 | 40.32501 | 50.62637 | 13032 ft | 421 kts | 82° |
| 2026-05-04 08:52 | 40.32987 | 50.66453 | 13799 ft | 426 kts | 83° |
| 2026-05-04 08:53 | 40.33476 | 50.70306 | 14621 ft | 430 kts | 83° |
| 2026-05-04 08:54 | 40.37315 | 50.98412 | 19700 ft | 467 kts | 78° |
| 2026-05-04 08:55 | 40.38091 | 51.02531 | 20409 ft | 471 kts | 78° |
| 2026-05-04 08:55 | 40.38871 | 51.06717 | 21079 ft | 475 kts | 78° |
| 2026-05-04 08:55 | 40.39649 | 51.10928 | 21761 ft | 478 kts | 78° |
| 2026-05-04 08:55 | 40.40426 | 51.15169 | 22411 ft | 482 kts | 78° |
| 2026-05-04 08:57 | 40.45810 | 51.45775 | 26614 ft | 506 kts | 85° |
| 2026-05-04 09:01 | 40.35628 | 52.09718 | 34223 ft | 519 kts | 107° |
| 2026-05-04 09:01 | 40.34769 | 52.14300 | 34641 ft | 519 kts | 107° |
| 2026-05-04 09:01 | 40.33904 | 52.18900 | 34857 ft | 523 kts | 107° |
| 2026-05-04 09:02 | 40.32169 | 52.28096 | 34889 ft | 520 kts | 107° |
| 2026-05-04 09:02 | 40.30436 | 52.37239 | 34892 ft | 520 kts | 107° |
| 2026-05-04 09:03 | 40.28678 | 52.46469 | 34908 ft | 522 kts | 107° |
| 2026-05-04 09:03 | 40.26826 | 52.55596 | 34902 ft | 519 kts | 113° |
| 2026-05-04 09:04 | 40.23545 | 52.63905 | 34910 ft | 513 kts | 128° |
| 2026-05-04 09:04 | 40.19597 | 52.71527 | 34906 ft | 508 kts | 129° |
| 2026-05-04 09:04 | 40.17582 | 52.75380 | 35046 ft | 508 kts | 129° |
| 2026-05-04 09:05 | 40.15587 | 52.79183 | 34905 ft | 509 kts | 129° |
| 2026-05-04 09:05 | 40.11617 | 52.86737 | 34911 ft | 508 kts | 129° |
| 2026-05-04 09:06 | 40.08296 | 52.94915 | 34913 ft | 519 kts | 113° |